createdAt,value
2023-04-12T00:00:02.448Z,25.46
2023-04-12T00:05:55.961Z,25.50
2023-04-12T00:08:27.232Z,25.51
2023-04-12T00:10:57.122Z,25.52
2023-04-12T00:13:27.197Z,25.53
2023-04-12T00:15:57.272Z,25.53
2023-04-12T00:18:28.054Z,25.53
2023-04-12T00:20:58.719Z,25.53
2023-04-12T00:23:48.433Z,25.53
2023-04-12T00:26:04.838Z,25.52
2023-04-12T00:28:34.792Z,25.55
2023-04-12T00:31:04.992Z,25.58
2023-04-12T00:33:38.812Z,25.59
2023-04-12T00:36:09.418Z,25.57
2023-04-12T00:39:05.273Z,25.57
2023-04-12T00:41:59.000Z,25.57
2023-04-12T00:44:29.803Z,25.58
2023-04-12T00:47:01.344Z,25.56
2023-04-12T00:49:31.898Z,25.60
2023-04-12T00:52:06.381Z,25.60
2023-04-12T00:54:36.382Z,25.60
2023-04-12T00:57:06.395Z,25.60
2023-04-12T01:02:31.532Z,25.58
2023-04-12T01:05:02.240Z,25.55
2023-04-12T01:07:37.153Z,25.53
2023-04-12T01:10:18.603Z,25.55
2023-04-12T01:13:08.089Z,25.58
2023-04-12T01:15:39.648Z,25.58
2023-04-12T01:18:16.289Z,25.57
2023-04-12T01:21:16.492Z,25.57
2023-04-12T01:24:08.940Z,25.57
2023-04-12T01:27:14.839Z,25.57
2023-04-12T01:30:07.028Z,25.56
2023-04-12T01:32:39.152Z,25.57
2023-04-12T01:35:10.162Z,25.56
2023-04-12T01:37:40.786Z,25.54
2023-04-12T01:40:11.648Z,25.51
2023-04-12T01:42:41.790Z,25.50
2023-04-12T01:45:41.979Z,25.50
2023-04-12T01:48:30.250Z,25.49
2023-04-12T01:51:18.631Z,25.48
2023-04-12T01:57:47.594Z,25.47
2023-04-12T02:03:31.350Z,25.46
2023-04-12T02:07:05.539Z,25.40
2023-04-12T02:09:46.402Z,25.45
2023-04-12T02:15:51.765Z,25.45
2023-04-12T02:18:24.844Z,25.43
2023-04-12T02:27:34.580Z,25.41
2023-04-12T02:30:42.790Z,25.41
2023-04-12T02:33:27.260Z,25.39
2023-04-12T02:39:35.590Z,25.38
2023-04-12T02:42:28.290Z,25.38
2023-04-12T02:45:19.877Z,25.38
2023-04-12T02:47:52.123Z,25.38
2023-04-12T02:50:23.678Z,25.36
2023-04-12T02:52:53.869Z,25.36
2023-04-12T02:55:24.064Z,25.36
2023-04-12T02:57:54.447Z,25.35
2023-04-12T03:03:52.389Z,25.38
2023-04-12T03:06:31.868Z,25.34
2023-04-12T03:09:27.084Z,25.33
2023-04-12T03:11:57.649Z,25.33
2023-04-12T03:14:29.494Z,25.32
2023-04-12T03:17:00.696Z,25.31
2023-04-12T03:19:32.005Z,25.30
2023-04-12T03:22:07.013Z,25.30
2023-04-12T03:24:41.228Z,25.29
2023-04-12T03:27:25.718Z,25.28
2023-04-12T03:29:56.717Z,25.28
2023-04-12T03:32:27.381Z,25.26
2023-04-12T03:34:58.745Z,25.26
2023-04-12T03:37:31.165Z,25.06
2023-04-12T03:40:15.720Z,25.24
2023-04-12T03:43:08.793Z,25.24
2023-04-12T03:46:10.295Z,25.23
2023-04-12T03:52:16.495Z,25.22
2023-04-12T03:54:57.661Z,25.19
2023-04-12T03:57:42.086Z,25.18
2023-04-12T04:01:04.527Z,25.17
2023-04-12T04:03:48.460Z,25.16
2023-04-12T04:06:45.741Z,25.13
2023-04-12T04:15:01.788Z,25.11
2023-04-12T04:17:32.514Z,25.10
2023-04-12T04:20:03.720Z,25.09
2023-04-12T04:22:33.863Z,25.05
2023-04-12T04:25:22.717Z,25.07
2023-04-12T04:28:10.424Z,25.07
2023-04-12T04:30:52.993Z,25.06
2023-04-12T04:33:59.551Z,25.06
2023-04-12T04:37:08.927Z,25.05
2023-04-12T04:40:14.940Z,25.02
2023-04-12T04:46:07.879Z,25.01
2023-04-12T04:48:56.290Z,24.99
2023-04-12T04:55:00.671Z,24.97
2023-04-12T05:01:00.465Z,24.95
2023-04-12T06:02:23.055Z,24.69
2023-04-12T06:08:40.543Z,24.68
2023-04-12T06:12:32.645Z,24.66
2023-04-12T06:15:18.493Z,24.66
2023-04-12T06:17:51.673Z,24.64
2023-04-12T06:20:45.421Z,24.63
2023-04-12T06:30:17.589Z,24.59
2023-04-12T06:32:47.527Z,24.54
2023-04-12T06:36:09.887Z,24.57
2023-04-12T06:38:39.883Z,24.52
2023-04-12T06:41:44.801Z,24.54
2023-04-12T06:44:34.043Z,24.53
2023-04-12T06:47:42.775Z,24.51
2023-04-12T06:50:51.452Z,24.50
2023-04-12T06:53:48.068Z,24.49
2023-04-12T06:56:51.168Z,24.47
2023-04-12T06:59:27.295Z,24.45
2023-04-12T07:02:37.834Z,24.45
2023-04-12T07:05:56.411Z,24.39
2023-04-12T07:09:06.539Z,24.41
2023-04-12T07:11:55.768Z,24.40
2023-04-12T07:14:31.950Z,24.39
2023-04-12T07:17:18.404Z,24.38
2023-04-12T07:19:49.700Z,24.37
2023-04-12T07:22:19.627Z,24.36
2023-04-12T07:24:51.076Z,24.35
2023-04-12T07:27:21.152Z,24.32
2023-04-12T07:29:55.388Z,24.32
2023-04-12T07:35:42.557Z,24.29
2023-04-12T07:44:40.282Z,24.25
2023-04-12T07:56:51.804Z,24.18
2023-04-12T07:59:42.267Z,24.11
2023-04-12T08:02:46.232Z,24.16
2023-04-12T08:08:59.339Z,24.13
2023-04-12T08:11:58.107Z,24.10
2023-04-12T08:14:39.832Z,24.09
2023-04-12T08:17:57.363Z,24.08
2023-04-12T08:20:33.968Z,24.06
2023-04-12T08:25:52.752Z,24.04
2023-04-12T08:28:24.093Z,24.02
2023-04-12T08:30:54.472Z,24.01
2023-04-12T08:33:25.898Z,24.00
2023-04-12T08:36:23.760Z,23.98
2023-04-12T08:38:58.020Z,23.98
2023-04-12T08:42:24.376Z,23.97
2023-04-12T08:48:00.579Z,23.94
2023-04-12T08:50:53.111Z,23.92
2023-04-12T08:54:04.835Z,23.91
2023-04-12T08:56:52.609Z,23.88
2023-04-12T08:59:52.601Z,23.87
2023-04-12T09:02:39.080Z,23.86
2023-04-12T09:05:17.870Z,23.84
2023-04-12T09:07:45.811Z,23.83
2023-04-12T09:10:17.133Z,23.82
2023-04-12T09:12:52.831Z,23.81
2023-04-12T09:15:30.194Z,23.80
2023-04-12T09:18:17.276Z,23.77
2023-04-12T09:20:55.882Z,23.77
2023-04-12T09:23:39.823Z,23.57
2023-04-12T09:26:10.441Z,23.74
2023-04-12T09:28:40.482Z,23.73
2023-04-12T09:31:10.719Z,23.72
2023-04-12T09:33:43.727Z,23.71
2023-04-12T09:36:18.416Z,23.66
2023-04-12T09:39:06.434Z,23.68
2023-04-12T09:44:42.263Z,23.65
2023-04-12T09:47:13.913Z,23.65
2023-04-12T09:49:45.042Z,23.64
2023-04-12T09:52:16.349Z,23.61
2023-04-12T09:54:52.528Z,23.61
2023-04-12T09:57:24.027Z,23.59
2023-04-12T09:59:58.155Z,23.59
2023-04-12T10:03:16.086Z,23.57
2023-04-12T10:05:46.915Z,23.56
2023-04-12T10:08:19.564Z,23.55
2023-04-12T10:10:49.584Z,23.48
2023-04-12T10:13:20.288Z,23.52
2023-04-12T10:15:51.710Z,23.50
2023-04-12T10:18:24.489Z,23.49
2023-04-12T10:20:59.796Z,23.48
2023-04-12T10:24:08.311Z,23.46
2023-04-12T10:26:17.856Z,23.45
2023-04-12T10:28:51.265Z,23.43
2023-04-12T10:31:50.624Z,23.42
2023-04-12T10:34:20.767Z,23.41
2023-04-12T10:37:01.300Z,23.40
2023-04-12T10:39:42.966Z,23.30
2023-04-12T10:42:25.936Z,23.36
2023-04-12T10:45:12.370Z,23.36
2023-04-12T10:48:09.822Z,23.34
2023-04-12T10:54:22.769Z,23.31
2023-04-12T10:57:16.653Z,23.22
2023-04-12T11:00:09.936Z,23.28
2023-04-12T11:09:07.995Z,23.03
2023-04-12T11:12:11.024Z,23.22
2023-04-12T11:15:12.381Z,23.20
2023-04-12T11:18:07.312Z,23.19
2023-04-12T11:20:53.061Z,23.17
2023-04-12T11:23:24.153Z,23.17
2023-04-12T11:25:59.219Z,23.15
2023-04-12T11:28:33.244Z,23.13
2023-04-12T11:31:06.294Z,23.11
2023-04-12T11:33:41.087Z,23.10
2023-04-12T11:36:16.590Z,23.06
2023-04-12T11:39:16.350Z,23.09
2023-04-12T11:42:07.225Z,23.08
2023-04-12T11:44:55.269Z,23.07
2023-04-12T11:50:35.242Z,23.03
2023-04-12T11:53:20.282Z,23.01
2023-04-12T11:55:53.034Z,23.00
2023-04-12T11:58:30.303Z,22.99
2023-04-12T12:01:03.595Z,22.98
2023-04-12T12:03:34.073Z,22.92
2023-04-12T12:09:38.286Z,22.94
2023-04-12T12:12:33.461Z,22.93
2023-04-12T12:15:21.194Z,22.94
2023-04-12T12:18:19.556Z,22.94
2023-04-12T12:24:21.602Z,22.95
2023-04-12T12:27:16.353Z,22.93
2023-04-12T12:33:35.165Z,22.92
2023-04-12T12:39:57.518Z,22.89
2023-04-12T12:42:45.918Z,22.88
2023-04-12T12:45:54.260Z,22.88
2023-04-12T12:49:03.004Z,22.86
2023-04-12T12:51:48.570Z,22.86
2023-04-12T12:54:58.326Z,22.85
2023-04-12T12:57:36.582Z,22.84
2023-04-12T13:00:56.942Z,22.84
2023-04-12T13:03:53.844Z,22.69
2023-04-12T13:06:45.770Z,22.82
2023-04-12T13:09:24.657Z,22.82
2023-04-12T13:15:53.729Z,22.82
2023-04-12T13:18:32.025Z,22.82
2023-04-12T13:21:24.372Z,22.81
2023-04-12T13:25:52.830Z,22.81
2023-04-12T13:26:41.813Z,22.79
2023-04-12T13:29:11.781Z,22.79
2023-04-12T13:31:41.933Z,22.78
2023-04-12T13:34:11.916Z,22.78
2023-04-12T13:37:23.756Z,22.79
2023-04-12T13:39:53.943Z,22.78
2023-04-12T13:42:32.882Z,22.78
2023-04-12T13:45:41.142Z,22.72
2023-04-12T13:48:24.087Z,22.76
2023-04-12T13:50:55.707Z,22.77
2023-04-12T13:53:25.974Z,22.77
2023-04-12T13:55:55.949Z,22.77
2023-04-12T13:58:27.874Z,22.77
2023-04-12T14:01:00.779Z,22.76
2023-04-12T14:03:53.018Z,22.76
2023-04-12T14:06:34.226Z,22.77
2023-04-12T14:15:43.461Z,22.76
2023-04-12T14:18:45.525Z,22.77
2023-04-12T14:21:42.033Z,22.73
2023-04-12T14:25:10.111Z,22.76
2023-04-12T14:28:18.908Z,22.76
2023-04-12T14:30:50.164Z,22.75
2023-04-12T14:33:55.569Z,22.74
2023-04-12T14:36:41.706Z,22.75
2023-04-12T14:40:11.215Z,22.75
2023-04-12T14:43:08.524Z,22.75
2023-04-12T14:45:41.300Z,22.75
2023-04-12T14:52:18.147Z,22.74
2023-04-12T14:55:04.802Z,22.72
2023-04-12T14:58:19.904Z,22.75
2023-04-12T15:00:49.993Z,22.76
2023-04-12T15:04:08.286Z,22.76
2023-04-12T15:06:56.368Z,22.76
2023-04-12T15:12:59.102Z,22.75
2023-04-12T15:16:06.956Z,22.76
2023-04-12T15:19:28.219Z,22.76
2023-04-12T15:22:33.903Z,22.71
2023-04-12T15:25:19.080Z,22.77
2023-04-12T15:28:27.445Z,22.77
2023-04-12T15:30:59.573Z,22.76
2023-04-12T15:33:53.017Z,22.78
2023-04-12T15:36:56.676Z,22.78
2023-04-12T15:40:15.830Z,22.78
2023-04-12T15:42:56.575Z,22.78
2023-04-12T15:49:19.264Z,22.79
2023-04-12T15:52:00.149Z,22.79
2023-04-12T15:55:04.722Z,22.81
2023-04-12T16:01:48.573Z,22.77
2023-04-12T16:04:19.048Z,22.77
2023-04-12T16:10:13.443Z,22.88
2023-04-12T16:13:22.628Z,22.83
2023-04-12T16:16:13.118Z,22.83
2023-04-12T16:19:26.240Z,22.84
2023-04-12T16:21:56.366Z,22.79
2023-04-12T16:27:14.882Z,22.85
2023-04-12T16:29:44.838Z,22.86
2023-04-12T16:32:14.757Z,22.87
2023-04-12T16:34:45.214Z,22.87
2023-04-12T16:37:36.970Z,22.88
2023-04-12T16:40:13.945Z,22.88
2023-04-12T16:49:40.414Z,22.91
2023-04-12T16:52:19.207Z,22.92
2023-04-12T16:58:44.253Z,22.93
2023-04-12T17:01:44.963Z,22.94
2023-04-12T17:04:57.068Z,22.95
2023-04-12T17:07:27.893Z,22.95
2023-04-12T17:10:20.006Z,22.95
2023-04-12T17:13:49.407Z,22.92
2023-04-12T17:16:37.326Z,22.97
2023-04-12T17:19:09.960Z,22.97
2023-04-12T17:31:55.085Z,23.00
2023-04-12T17:34:32.270Z,23.01
2023-04-12T17:37:24.527Z,23.03
2023-04-12T17:40:35.615Z,22.87
2023-04-12T17:43:27.377Z,23.05
2023-04-12T17:46:34.972Z,23.06
2023-04-12T17:49:20.309Z,23.06
2023-04-12T17:55:19.416Z,23.08
2023-04-12T17:59:02.112Z,23.08
2023-04-12T18:01:33.376Z,23.08
2023-04-12T18:04:28.318Z,23.09
2023-04-12T18:10:27.460Z,23.10
2023-04-12T18:13:17.235Z,23.13
2023-04-12T18:16:14.230Z,23.14
2023-04-12T18:21:32.033Z,23.15
2023-04-12T18:24:03.225Z,23.12
2023-04-12T18:26:33.406Z,23.17
2023-04-12T18:29:16.837Z,23.16
2023-04-12T18:32:01.837Z,23.19
2023-04-12T18:37:54.798Z,23.26
2023-04-12T18:41:16.033Z,23.20
2023-04-12T18:43:40.687Z,23.25
2023-04-12T18:46:21.015Z,23.27
2023-04-12T18:49:26.801Z,23.29
2023-04-12T18:52:45.032Z,23.30
2023-04-12T18:55:35.875Z,23.30
2023-04-12T18:58:55.248Z,23.31
2023-04-12T19:01:32.792Z,23.31
2023-04-12T19:04:14.194Z,23.32
2023-04-12T19:06:46.104Z,23.32
2023-04-12T19:09:18.743Z,23.16
2023-04-12T19:11:50.296Z,23.34
2023-04-12T19:17:12.327Z,23.40
2023-04-12T19:19:45.192Z,23.36
2023-04-12T19:22:31.291Z,23.37
2023-04-12T19:28:37.295Z,23.27
2023-04-12T19:37:47.227Z,23.48
2023-04-12T19:40:27.027Z,23.42
2023-04-12T19:42:58.433Z,23.44
2023-04-12T19:45:29.412Z,23.46
2023-04-12T19:47:59.432Z,23.47
2023-04-12T19:50:30.725Z,23.37
2023-04-12T19:53:04.172Z,23.49
2023-04-12T19:56:01.481Z,23.50
2023-04-12T19:58:43.077Z,23.51
2023-04-12T20:05:11.069Z,23.55
2023-04-12T20:07:49.802Z,23.56
2023-04-12T20:10:35.842Z,23.57
2023-04-12T20:15:56.491Z,23.60
2023-04-12T20:18:26.869Z,23.61
2023-04-12T20:20:58.263Z,23.62
2023-04-12T20:23:28.342Z,23.62
2023-04-12T20:29:52.614Z,23.65
2023-04-12T20:32:39.602Z,23.68
2023-04-12T20:35:33.851Z,23.61
2023-04-12T20:38:06.504Z,23.71
2023-04-12T20:40:38.263Z,23.74
2023-04-12T20:45:57.638Z,23.76
2023-04-12T20:48:27.615Z,23.80
2023-04-12T20:50:58.960Z,23.81
2023-04-12T20:53:28.903Z,23.83
2023-04-12T20:56:45.646Z,23.85
2023-04-12T20:59:19.292Z,23.87
2023-04-12T21:02:25.345Z,23.91
2023-04-12T21:05:12.358Z,23.87
2023-04-12T21:08:48.345Z,23.93
2023-04-12T21:12:12.500Z,23.92
2023-04-12T21:14:42.441Z,23.99
2023-04-12T21:17:12.565Z,24.02
2023-04-12T21:19:42.569Z,24.03
2023-04-12T21:22:12.668Z,24.01
2023-04-12T21:24:42.565Z,24.05
2023-04-12T21:27:12.806Z,24.08
2023-04-12T21:29:42.737Z,24.11
2023-04-12T21:32:13.160Z,24.14
2023-04-12T21:34:59.142Z,24.15
2023-04-12T21:37:45.108Z,24.16
2023-04-12T21:40:15.116Z,24.20
2023-04-12T21:42:45.885Z,24.22
2023-04-12T21:45:15.917Z,24.09
2023-04-12T21:47:45.939Z,24.26
2023-04-12T21:50:16.424Z,24.28
2023-04-12T21:53:01.895Z,24.29
2023-04-12T21:55:46.828Z,24.32
2023-04-12T21:58:17.578Z,24.28
2023-04-12T22:00:47.887Z,24.38
2023-04-12T22:03:18.038Z,24.39
2023-04-12T22:06:00.788Z,24.41
2023-04-12T22:08:21.126Z,24.44
2023-04-12T22:11:11.717Z,24.46
2023-04-12T22:17:47.812Z,24.49
2023-04-12T22:20:52.069Z,24.52
2023-04-12T22:23:34.862Z,24.53
2023-04-12T22:26:23.431Z,24.58
2023-04-12T22:29:07.359Z,24.60
2023-04-12T22:35:20.737Z,24.63
2023-04-12T22:47:43.118Z,24.74
2023-04-12T22:50:33.313Z,24.75
2023-04-12T22:56:11.908Z,24.80
2023-04-12T22:59:30.038Z,24.86
2023-04-12T23:02:41.104Z,24.88
2023-04-12T23:05:38.008Z,24.91
2023-04-12T23:08:26.442Z,24.93
2023-04-12T23:15:21.914Z,24.97
2023-04-12T23:17:55.971Z,25.00
2023-04-12T23:20:35.028Z,25.04
2023-04-12T23:26:08.860Z,25.08
2023-04-12T23:28:43.259Z,25.10
2023-04-12T23:31:13.392Z,25.13
2023-04-12T23:33:46.435Z,25.13
2023-04-12T23:36:17.462Z,25.15
2023-04-12T23:38:48.006Z,25.15
2023-04-12T23:41:20.431Z,25.17
2023-04-12T23:50:57.032Z,25.25
2023-04-12T23:54:08.379Z,25.27
2023-04-12T23:56:38.755Z,25.27
2023-04-12T23:59:27.800Z,25.27
